Alloy, WV

5:54 AM EDT on August 28, 2014 (GMT -0400)
KWVGLENF2 | Change Station
CLOSE
Current Station
Personal Weather Station
Location: Glen Ferris, WV
Elevation: 676 ft
Nearby Weather Stations

Elev 676 ft 38.15 °N, 81.22 °W | Updated 21 minutes ago

Fog
Fog
71.0 °F
Feels Like 71.0 °F
N
0.0
Wind Variable Wind from SW
Gusts 0.0 mph

Today
High -- | Low -- °F
--% Chance of Precip.
Yesterday
High -- | Low -- °F
Precip. -- in
6:51 AM 8:00 PM
Waxing Crescent, 7% visible
Pressure 30.01 in
Visibility 1.5 miles
Clouds Mostly Cloudy 100 ft
Overcast 3000 ft
Dew Point 69 °F
Humidity 94%
Rainfall 0.01 in
Snow Depth Not available.
UV 0 out of 12
Pollen 9.70 out of 12
Air Quality Not available.
Flu Activity Not available.
METAR KCRW 280854Z 00000KT 1 1/2SM BR BKN001 OVC030 21/21 A3004 RMK AO2 SLP161 VLY FG T02060206 55002

More Conditions Fewer Conditions

Pressure 30.01 in
Visibility 1.5 miles
Clouds Mostly Cloudy 100 ft
Overcast 3000 ft
Dew Point 69 °F
Humidity 94%
Rainfall 0.01 in
Snow Depth Not available.
UV 0 out of 12
Pollen 9.70 out of 12
Air Quality Not available.
Flu Activity Not available.
METAR KCRW 280854Z 00000KT 1 1/2SM BR BKN001 OVC030 21/21 A3004 RMK AO2 SLP161 VLY FG T02060206 55002

More Conditions Fewer Conditions

10-Day Weather Forecast

Almanac

Astronomy

Aug. 28, 2014 Rise Set
Actual Time 6:51 AM EDT 8:00 PM EDT
Civil Twilight 6:24 AM EDT 8:28 PM EDT
Nautical Twilight 5:51 AM EDT 9:00 PM EDT
Astronomical Twilight 5:17 AM EDT 9:34 PM EDT
Moon 9:39 AM EDT 9:27 PM EDT
Length of Visible Light 14h 03m
Length of Day
13h 09m
Tomorrow will be 2m 20s shorter.
Waxing Crescent, 7% of the Moon is Illuminated
Today
Waxing Crescent
Sep 2
First Quarter
Sep 8
Full
Sep 15
Last Quarter
Sep 24
New

Today's Extremes

State Highs State Lows

Community

WunderPhotos

Upload Photos

1,747,918 photos uploaded!

Nearby

Snow Depth

Station Depth Elevation
No new snow has been reported.

Earthquake Activity

City Distance Mag. Time & Date
No recent earthquake activity has been reported nearby.
Minimum magnitude displayed is 2.5.

Coastal Water Temperatures

Place Temperature
No Stations Reporting

Nearby Weather Stations